Latest Coastal Weather Observations for Portland Airport

IDS60701

Issued at 5:11 am CDT Monday 27 March 2017 (issued every 10 minutes, with the page automatically refreshed every 10 minutes)

About coastal observations | Map of coastal stations | Coastal observations for SA | Marine services | Other Formats
Station Details ID: 090171 Name: CASHMORE AIRPORT Lat: -38.31 Lon: 141.47 Height: 80.9 m
Data from the previous 72 hours. | See also: Recent months at Portland Airport
Date/Time
CDT
Temp
°C
Wind Pressure Rain since
9am
mm
Weather Cloud Vis
km
Sea
Height
m
Swell
Dir  Spd
kts
Gust
kts
hPa Trend Height
m
Period
s
Dir
27/05:00am 26.9 N 17 27 999.5 - 0.0 - - 10 - - - -
27/04:30am 26.9 N 16 26 999.9 - 0.0 - - 10 - - - -
27/04:29am 26.8 N 16 26 1000.0 - 0.0 - - 10 - - - -
27/04:00am 26.2 N 14 22 1000.8 - 0.0 - - 10 - - - -
27/03:30am 25.7 N 14 21 1001.4 - 0.0 - Partly cloudy 10 - - - -
27/03:00am 25.1 N 11 20 1002.1 - 0.0 - - 10 - - - -
27/02:30am 24.9 N 13 21 1002.5 - 0.0 - Cloudy 10 - - - -
27/02:00am 24.5 N 12 18 1003.3 - 0.0 - - 10 - - - -
27/01:30am 24.7 N 12 19 1003.8 - 0.0 - - 10 - - - -
27/01:00am 24.2 N 12 17 1004.5 - 0.0 - - 10 - - - -
27/12:30am 24.0 N 10 17 1005.2 - 0.0 - - 10 - - - -
27/12:00am 23.6 N 12 16 1005.8 - 0.0 - Partly cloudy 10 - - - -
 
Date/Time
CDT
Temp
°C
Wind Pressure Rain since
9am
mm
Weather Cloud Vis
km
Sea
Height
m
Swell
Dir  Spd
kts
Gust
kts
hPa Trend Height
m
Period
s
Dir
26/11:30pm 22.9 N 9 13 1006.4 - 0.0 - Cloudy 10 - - - -
26/11:00pm 21.8 NNE 8 12 1006.1 - 0.0 - Partly cloudy 10 - - - -
26/10:30pm 20.8 N 7 9 1007.6 - 0.0 - - 10 - - - -
26/10:00pm 20.7 NNE 7 9 1008.3 - 0.0 - Partly cloudy 10 - - - -
26/09:30pm 19.7 NNE 7 8 1008.6 - 0.0 - - 10 - - - -
26/09:00pm 18.6 NNE 6 7 1008.8 - 0.0 - - 10 - - - -
26/08:30pm 18.5 NE 5 7 1008.8 - 0.0 - Mostly cloudy 10 - - - -
26/08:00pm 18.3 ENE 5 7 1008.8 - 0.0 - - 10 - - - -
26/07:30pm 18.6 E 6 9 1008.7 - 0.0 - - 10 - - - -
26/07:00pm 18.9 ENE 6 9 1009.0 - 0.0 - - 10 - - - -
26/06:30pm 19.5 E 7 9 1009.2 - 0.0 - - 10 - - - -
26/06:00pm 20.9 E 7 10 1009.4 - 0.0 - - 10 - - - -
26/05:30pm 21.3 E 8 10 1009.6 - 0.0 - Mostly cloudy 10 - - - -
26/05:00pm 22.7 E 7 11 1009.7 - 0.0 - - 10 - - - -
26/04:30pm 23.5 E 6 10 1010.0 - 0.0 - - 10 - - - -
26/04:00pm 23.7 E 8 12 1010.2 - 0.0 - - 10 - - - -
26/03:30pm 23.9 E 6 8 1011.0 - 0.0 - - 10 - - - -
26/03:00pm 23.6 E 6 8 1011.5 - 0.0 - - 10 - - - -
26/02:30pm 23.4 E 6 9 1012.1 - 0.0 - - 10 - - - -
26/02:00pm 22.8 ENE 6 9 1012.3 - 0.0 - - 10 - - - -
26/01:30pm 22.3 E 7 12 1012.7 - 0.0 - - 10 - - - -
26/01:00pm 23.3 ENE 6 9 1013.2 - 0.0 - - 10 - - - -
26/12:30pm 21.1 ENE 7 11 1014.1 - 0.0 - Partly cloudy 10 - - - -
26/12:00pm 20.3 ENE 8 12 1013.9 - 0.0 - Partly cloudy 10 - - - -
26/11:30am 19.8 ENE 7 11 1014.2 - 0.0 - Mostly cloudy 10 - - - -
26/11:00am 19.1 ENE 7 10 1014.7 - 0.0 - Cloudy 10 - - - -
26/10:30am 18.8 E 7 11 1014.7 - 0.0 - Cloudy 10 - - - -
26/10:00am 18.3 ENE 4 7 1015.0 - 0.0 - Cloudy 10 - - - -
26/09:30am 17.8 ESE 4 7 1015.2 - 0.0 - Cloudy 10 - - - -
26/09:00am 17.4 SSE 4 5 1015.6 - 0.0 - Cloudy 10 - - - -
26/08:30am 17.1 CALM 0 1 1015.5 - 0.2 - Cloudy 10 - - - -
26/08:00am 16.7 SSE 1 4 1015.1 - 0.2 - Cloudy 10 - - - -
26/07:30am 16.4 S 2 5 1014.8 - 0.2 - Cloudy 10 - - - -
26/07:00am 16.4 CALM 0 3 1014.5 - 0.2 - Cloudy 10 - - - -
26/06:30am 16.2 CALM 0 0 1014.0 - 0.2 - Cloudy 10 - - - -
26/06:00am 16.3 CALM 0 0 1014.2 - 0.2 - Cloudy 10 - - - -
26/05:30am 16.5 CALM 0 0 1014.1 - 0.2 - Cloudy 10 - - - -
26/05:00am 16.4 CALM 0 0 1014.0 - 0.2 - Cloudy 10 - - - -
26/04:30am 16.5 SSW 2 3 1013.9 - 0.2 - Cloudy 10 - - - -
26/04:00am 16.6 S 3 4 1013.9 - 0.2 - Cloudy 10 - - - -
26/03:30am 16.6 CALM 0 0 1014.1 - 0.2 - Cloudy 10 - - - -
26/03:00am 16.7 S 4 6 1014.4 - 0.2 - Cloudy 10 - - - -
26/02:30am 16.9 S 4 4 1014.2 - 0.2 - Cloudy 10 - - - -
26/02:00am 16.8 S 1 4 1014.7 - 0.2 - Cloudy 10 - - - -
26/01:30am 16.9 S 1 4 1014.8 - 0.2 - Cloudy 10 - - - -
26/01:00am 16.9 S 1 4 1014.8 - 0.2 - Cloudy 10 - - - -
26/12:30am 17.0 CALM 0 0 1014.9 - 0.2 - Cloudy 10 - - - -
26/12:00am 16.9 S 2 4 1014.9 - 0.2 - Cloudy 10 - - - -
 
Date/Time
CDT
Temp
°C
Wind Pressure Rain since
9am
mm
Weather Cloud Vis
km
Sea
Height
m
Swell
Dir  Spd
kts
Gust
kts
hPa Trend Height
m
Period
s
Dir
25/11:30pm 16.8 S 3 4 1015.4 - 0.2 - Cloudy 10 - - - -
25/11:00pm 16.9 SSW 3 5 1015.4 - 0.2 - Cloudy 10 - - - -
25/10:30pm 17.1 SSW 2 4 1015.2 - 0.2 - Cloudy 10 - - - -
25/10:00pm 17.0 CALM 0 3 1015.4 - 0.2 - Partly cloudy 10 - - - -
25/09:30pm 17.0 WSW 4 4 1015.0 - 0.2 - Partly cloudy 10 - - - -
25/09:00pm 17.0 WSW 4 5 1014.9 - 0.2 - Partly cloudy 10 - - - -
25/08:30pm 17.0 WSW 4 5 1014.6 - 0.2 - Mostly cloudy 10 - - - -
25/08:00pm 17.1 WSW 5 6 1014.4 - 0.2 - Cloudy 10 - - - -
25/07:30pm 17.1 SW 5 7 1013.9 - 0.2 - Partly cloudy 10 - - - -
25/07:25pm 17.1 SW 6 8 1013.8 - 0.2 - Partly cloudy 10 - - - -
25/07:00pm 17.5 WSW 6 7 1013.7 - 0.2 - Partly cloudy 10 - - - -
25/06:30pm 17.8 WSW 6 8 1013.6 - 0.2 - Partly cloudy 10 - - - -
25/06:00pm 18.1 WSW 7 10 1013.3 - 0.2 - Partly cloudy 10 - - - -
25/05:30pm 18.0 WSW 7 10 1013.2 - 0.2 - Cloudy 10 - - - -
25/05:00pm 18.3 WSW 10 13 1013.0 - 0.2 - Partly cloudy 10 - - - -
25/04:30pm 18.6 WSW 9 12 1012.8 - 0.2 - Partly cloudy 10 - - - -
25/04:00pm 18.8 W 9 12 1012.7 - 0.2 - Cloudy 10 - - - -
25/03:30pm 18.8 SSW 7 11 1012.5 - 0.2 - Cloudy 10 - - - -
25/03:00pm 18.9 W 10 13 1012.4 - 0.2 - Cloudy 10 - - - -
25/02:30pm 19.6 W 11 14 1012.3 - 0.2 - Partly cloudy 10 - - - -
25/02:26pm 19.7 W 11 14 1012.4 - 0.2 - Partly cloudy 10 - - - -
25/02:00pm 21.3 W 12 14 1012.3 - 0.2 - Partly cloudy 10 - - - -
25/01:30pm 20.9 WSW 12 15 1012.2 - 0.2 - - 10 - - - -
25/01:00pm 22.5 W 11 13 1012.3 - 0.2 - - 10 - - - -
25/12:30pm 22.5 W 9 12 1012.5 - 0.2 - - 10 - - - -
25/12:00pm 23.3 W 10 13 1012.6 - 0.2 - - 10 - - - -
25/11:30am 23.7 WSW 7 10 1012.5 - 0.0 - - 10 - - - -
25/11:00am 23.4 WSW 7 10 1012.6 - 0.0 - - 10 - - - -
25/10:30am 23.2 WSW 6 9 1012.5 - 0.0 - - 10 - - - -
25/10:00am 22.8 W 8 11 1012.5 - 0.0 - - 10 - - - -
25/09:30am 23.1 WNW 8 11 1012.3 - 0.0 - - 10 - - - -
25/09:00am 22.4 NW 6 8 1011.9 - 0.0 - - 10 - - - -
25/08:30am 20.7 NW 6 8 1011.8 - 0.0 - - 10 - - - -
25/08:00am 19.5 WNW 8 10 1011.6 - 0.0 - Partly cloudy 10 - - - -
25/07:30am 17.9 W 6 8 1011.4 - 0.0 - Partly cloudy 10 - - - -
25/07:00am 17.4 W 6 8 1011.0 - 0.0 - Partly cloudy 10 - - - -
25/06:30am 18.3 WNW 7 9 1010.6 - 0.0 - Cloudy 10 - - - -
25/06:00am 18.8 WNW 7 9 1010.5 - 0.0 - Partly cloudy 10 - - - -
25/05:30am 18.3 NNE 6 7 1010.3 - 0.0 - Cloudy 10 - - - -
25/05:00am 18.5 N 4 6 1010.4 - 0.0 - Partly cloudy 10 - - - -
25/04:30am 18.3 N 6 8 1010.4 - 0.0 - Partly cloudy 10 - - - -
25/04:00am 17.9 N 6 8 1010.5 - 0.0 - Cloudy 10 - - - -
25/03:30am 17.4 N 5 6 1010.6 - 0.0 - Cloudy 10 - - - -
25/03:00am 17.1 NNE 5 6 1010.9 - 0.0 - Cloudy 10 - - - -
25/02:30am 17.0 NNE 4 5 1011.1 - 0.0 - Cloudy 10 - - - -
25/02:00am 17.3 NNE 3 4 1011.3 - 0.0 - Cloudy 10 - - - -
25/01:30am 17.7 NNE 4 6 1011.5 - 0.0 - Partly cloudy 10 - - - -
25/01:00am 17.9 NNE 5 7 1011.7 - 0.0 - Cloudy 10 - - - -
25/12:30am 17.9 NE 3 6 1012.1 - 0.0 - Cloudy 10 - - - -
25/12:00am 17.9 NNE 4 6 1012.6 - 0.0 - Cloudy 10 - - - -
 
Date/Time
CDT
Temp
°C
Wind Pressure Rain since
9am
mm
Weather Cloud Vis
km
Sea
Height
m
Swell
Dir  Spd
kts
Gust
kts
hPa Trend Height
m
Period
s
Dir
24/11:30pm 17.8 NE 5 7 1012.9 - 0.0 - Mostly cloudy 10 - - - -
24/11:00pm 17.3 NE 5 7 1013.0 - 0.0 - Partly cloudy 10 - - - -
24/10:30pm 17.3 ENE 5 8 1013.4 - 0.0 - - 10 - - - -
24/10:00pm 17.1 ENE 4 7 1014.0 - 0.0 - Partly cloudy 10 - - - -
24/09:30pm 16.9 CALM 0 0 1014.9 - 0.0 - - 10 - - - -
24/09:00pm 17.0 ENE 4 6 1014.4 - 0.0 - - 10 - - - -
24/08:30pm 16.9 E 4 5 1014.5 - 0.0 - Cloudy 10 - - - -
24/08:00pm 17.0 E 4 6 1014.4 - 0.0 - - 10 - - - -
24/07:30pm 17.6 E 5 8 1014.5 - 0.0 - - 10 - - - -
24/07:00pm 18.3 E 5 7 1014.7 - 0.0 - - 10 - - - -
24/06:30pm 19.0 E 5 6 1015.1 - 0.0 - - 10 - - - -
24/06:00pm 19.9 ESE 6 8 1015.2 - 0.0 - - 10 - - - -
24/05:30pm 20.3 E 5 8 1015.4 - 0.0 - Partly cloudy 10 - - - -
24/05:00pm 20.3 ESE 7 10 1015.1 - 0.0 - - 10 - - - -
24/04:30pm 21.2 E 5 7 1015.4 - 0.0 - Partly cloudy 10 - - - -
24/04:00pm 21.7 ENE 5 8 1015.1 - 0.0 - Partly cloudy 10 - - - -
24/03:30pm 22.1 E 5 7 1015.4 - 0.0 - Partly cloudy 10 - - - -
24/03:00pm 21.5 E 7 12 1015.1 - 0.0 - - 10 - - - -
24/02:30pm 21.9 E 7 10 1015.6 - 0.0 - Partly cloudy 10 - - - -
24/02:00pm 20.8 E 7 11 1016.2 - 0.0 - Partly cloudy 10 - - - -
24/01:30pm 20.1 E 8 10 1016.5 - 0.0 - Partly cloudy 10 - - - -
24/01:00pm 19.9 E 9 13 1016.7 - 0.0 - Partly cloudy 10 - - - -
24/12:30pm 18.5 E 8 11 1017.5 - 0.0 - Partly cloudy 10 - - - -
24/12:00pm 18.2 E 9 13 1017.8 - 0.0 - - 10 - - - -
24/11:30am 18.6 E 10 15 1018.0 - 0.0 - Mostly cloudy 10 - - - -
24/11:23am 18.2 E 9 14 1018.2 - 0.0 - Partly cloudy 10 - - - -
24/11:00am 18.3 E 11 15 1018.5 - 0.0 - Partly cloudy 10 - - - -
24/10:48am 17.5 E 10 16 1018.8 - 0.0 - Partly cloudy 10 - - - -
24/10:30am 16.6 E 10 15 1018.9 - 0.0 - Partly cloudy 10 - - - -
24/10:00am 16.4 E 9 15 1019.2 - 0.0 - Partly cloudy 10 - - - -
24/09:30am 16.5 E 10 16 1019.0 - 0.0 - Partly cloudy 10 - - - -
24/09:00am 15.7 E 9 12 1019.2 - 0.0 - - 10 - - - -
24/08:30am 15.1 E 9 14 1019.1 - 0.0 - Mostly cloudy 10 - - - -
24/08:00am 14.9 E 8 13 1019.3 - 0.0 - - 10 - - - -
24/07:30am 14.6 E 8 12 1019.0 - 0.0 - - 10 - - - -
24/07:00am 14.5 E 7 11 1019.0 - 0.0 - - 10 - - - -
24/06:30am 14.4 E 8 13 1018.4 - 0.0 - - 10 - - - -
24/06:00am 14.3 E 8 14 1018.2 - 0.0 - - 10 - - - -
24/05:30am 14.3 ENE 7 11 1018.2 - 0.0 - Cloudy 10 - - - -
24/05:00am 14.1 E 7 11 1018.2 - 0.0 - - 10 - - - -

Other Formats:

Comma delimited format used in spreadsheet applications
http://www.bom.gov.au/fwo/IDS60701/IDS60701.94828.axf

JavaScript Object Notation format (JSON) in row-major order
http://www.bom.gov.au/fwo/IDS60701/IDS60701.94828.json